Time;durP1;ratioP1;P1;durP2;ratioP2;P2;SDS_P1;SDS_P2;PMS_P1;PMS_P2;Temp;Humidity;BMP_temperature;BMP_pressure;BME280_temperature;BME280_humidity;BME280_pressure;Samples;Min_cycle;Max_cycle;Signal;HPM_P1;HPM_P2
2023/04/06 00:00:49;;;;;;;15.48;9.20;;;;;;;4.48;67.97;101786.28;4892081;29;20043;-79
2023/04/06 00:03:14;;;;;;;15.48;8.13;;;;;;;4.79;67.21;101780.81;4920114;29;20024;-78
2023/04/06 00:05:40;;;;;;;14.43;9.18;;;;;;;4.52;65.95;101787.28;4904115;29;20119;-79
2023/04/06 00:08:05;;;;;;;16.77;9.07;;;;;;;4.12;68.01;101773.25;4921261;29;20028;-79
2023/04/06 00:10:31;;;;;;;17.30;9.55;;;;;;;4.11;68.02;101762.47;4920827;29;20675;-79
2023/04/06 00:12:57;;;;;;;15.45;9.80;;;;;;;4.11;67.36;101766.09;4898272;29;20023;-79
2023/04/06 00:15:22;;;;;;;12.65;8.50;;;;;;;3.98;68.20;101764.16;4917926;29;20542;-79
2023/04/06 00:17:48;;;;;;;12.82;7.93;;;;;;;4.06;68.73;101767.00;4897210;29;20090;-79
2023/04/06 00:20:14;;;;;;;12.48;8.05;;;;;;;3.81;69.54;101754.53;4885739;29;20474;-79
2023/04/06 00:22:40;;;;;;;14.95;8.88;;;;;;;4.16;70.48;101754.88;4918339;29;20039;-79
2023/04/06 00:25:05;;;;;;;15.85;9.90;;;;;;;4.25;69.35;101757.72;4906162;29;20032;-79
2023/04/06 00:27:31;;;;;;;14.68;8.98;;;;;;;4.17;68.22;101750.16;4919999;29;20047;-79
2023/04/06 00:29:56;;;;;;;17.92;10.30;;;;;;;4.44;68.49;101750.03;4908331;29;20031;-78
2023/04/06 00:32:21;;;;;;;18.33;10.45;;;;;;;4.03;67.98;101744.69;4903965;29;20282;-79
2023/04/06 00:34:47;;;;;;;16.98;9.52;;;;;;;3.77;69.71;101742.44;4918203;29;20344;-79
2023/04/06 00:37:12;;;;;;;16.02;10.55;;;;;;;4.19;69.94;101737.63;4905871;29;20094;-79
2023/04/06 00:39:37;;;;;;;18.63;9.27;;;;;;;3.83;70.33;101738.44;4915388;29;20119;-79
2023/04/06 00:42:14;;;;;;;15.75;9.88;;;;;;;3.67;69.68;101720.56;4918333;29;20055;-79
2023/04/06 00:44:40;;;;;;;19.40;10.32;;;;;;;3.92;71.52;101740.47;4899683;29;20127;-79
2023/04/06 00:47:07;;;;;;;12.50;8.93;;;;;;;3.89;70.63;101721.72;4916783;29;21196;-79
2023/04/06 00:49:33;;;;;;;17.55;9.35;;;;;;;3.70;70.81;101725.44;4902095;29;20509;-79
2023/04/06 00:51:58;;;;;;;13.32;8.98;;;;;;;3.85;69.61;101727.06;4907975;29;20054;-79
2023/04/06 00:54:24;;;;;;;14.98;9.88;;;;;;;3.78;70.72;101727.50;4926504;29;20330;-79
2023/04/06 00:56:50;;;;;;;13.82;9.23;;;;;;;3.82;70.98;101722.97;4916812;29;20434;-79
2023/04/06 00:59:15;;;;;;;16.40;9.45;;;;;;;3.99;70.96;101721.50;4930426;29;20056;-79
2023/04/06 01:01:41;;;;;;;24.20;10.75;;;;;;;4.23;69.00;101719.22;4901385;29;20031;-79
2023/04/06 01:04:06;;;;;;;14.18;9.07;;;;;;;4.25;69.12;101719.75;4918310;29;20028;-79
2023/04/06 01:06:32;;;;;;;15.75;9.55;;;;;;;4.03;70.53;101717.78;4899107;29;20095;-79
2023/04/06 01:08:57;;;;;;;16.15;9.27;;;;;;;4.08;71.11;101714.06;4919416;29;20059;-79
2023/04/06 01:11:22;;;;;;;19.85;10.95;;;;;;;4.44;69.48;101710.41;4921194;29;20039;-78
2023/04/06 01:13:48;;;;;;;12.05;8.88;;;;;;;4.53;68.69;101710.47;4912480;29;20340;-79
2023/04/06 01:16:14;;;;;;;14.40;8.90;;;;;;;4.50;68.45;101706.38;4925116;29;20577;-80
2023/04/06 01:18:40;;;;;;;24.58;10.55;;;;;;;3.80;70.50;101696.72;4918740;29;20027;-79
2023/04/06 01:21:08;;;;;;;17.65;9.77;;;;;;;3.75;71.45;101694.88;4921289;29;20076;-80
2023/04/06 01:23:33;;;;;;;14.48;10.02;;;;;;;3.98;71.59;101703.22;4922247;29;20027;-79
2023/04/06 01:25:58;;;;;;;15.95;9.75;;;;;;;3.84;69.80;101704.09;4912132;29;20039;-79
2023/04/06 01:28:24;;;;;;;12.95;9.65;;;;;;;3.40;72.57;101693.72;4925938;29;20039;-79
2023/04/06 01:30:49;;;;;;;16.38;9.77;;;;;;;3.51;72.81;101686.00;4922165;29;20082;-79
2023/04/06 01:33:15;;;;;;;18.50;11.05;;;;;;;3.75;71.49;101678.25;4929657;29;20500;-79
2023/04/06 01:35:40;;;;;;;19.67;9.85;;;;;;;3.66;72.58;101680.13;4907502;29;20074;-79
2023/04/06 01:38:05;;;;;;;17.50;9.10;;;;;;;3.72;72.51;101687.19;4901403;29;20035;-79
2023/04/06 01:40:31;;;;;;;16.10;10.25;;;;;;;3.19;73.35;101687.78;4925308;29;20448;-79
2023/04/06 01:42:56;;;;;;;14.93;9.75;;;;;;;3.22;73.77;101681.63;4907210;29;20031;-79
2023/04/06 01:45:22;;;;;;;14.82;10.38;;;;;;;3.47;73.82;101671.97;4906188;29;20379;-79
2023/04/06 01:47:47;;;;;;;15.73;9.48;;;;;;;3.63;73.62;101686.31;4920100;29;20379;-79
2023/04/06 01:50:12;;;;;;;18.05;9.88;;;;;;;3.40;72.57;101677.13;4927310;29;20043;-79
2023/04/06 01:52:38;;;;;;;17.25;9.52;;;;;;;3.50;73.40;101651.16;4918589;29;20132;-79
2023/04/06 01:55:03;;;;;;;17.30;9.73;;;;;;;3.70;72.69;101674.81;4927030;29;20118;-78
2023/04/06 01:57:29;;;;;;;13.75;9.75;;;;;;;3.84;71.53;101681.13;4904106;29;20075;-79
2023/04/06 01:59:55;;;;;;;13.25;8.70;;;;;;;3.93;70.97;101670.13;4924734;29;20525;-79
2023/04/06 02:02:21;;;;;;;16.52;10.30;;;;;;;4.01;70.86;101678.50;4924302;29;20047;-79
2023/04/06 02:04:46;;;;;;;17.38;9.07;;;;;;;4.16;70.36;101671.75;4896985;29;20040;-79
2023/04/06 02:07:11;;;;;;;17.23;10.30;;;;;;;4.11;70.99;101669.13;4927884;29;20027;-78
2023/04/06 02:09:37;;;;;;;13.45;9.80;;;;;;;4.20;70.51;101672.78;4921175;29;20122;-78
2023/04/06 02:12:02;;;;;;;18.23;10.27;;;;;;;4.20;70.21;101663.63;4926562;29;20043;-79
2023/04/06 02:14:28;;;;;;;18.88;9.50;;;;;;;4.15;70.66;101655.44;4924423;29;20285;-78
2023/04/06 02:16:53;;;;;;;16.20;9.75;;;;;;;4.14;70.60;101656.59;4897733;29;20477;-79
2023/04/06 02:19:18;;;;;;;16.67;9.93;;;;;;;4.12;70.53;101656.09;4913470;29;20041;-79
2023/04/06 02:21:44;;;;;;;16.80;10.30;;;;;;;4.09;70.38;101654.78;4903660;29;20043;-79
2023/04/06 02:24:09;;;;;;;18.77;10.50;;;;;;;3.95;70.42;101649.28;4911690;29;20083;-79
2023/04/06 02:26:35;;;;;;;14.63;9.55;;;;;;;4.00;71.28;101651.09;4900358;29;20174;-79
2023/04/06 02:29:01;;;;;;;13.73;10.32;;;;;;;3.98;71.49;101647.81;4907430;29;20055;-79
2023/04/06 02:31:27;;;;;;;17.48;10.85;;;;;;;3.76;71.78;101646.69;4919480;29;20084;-79
2023/04/06 02:33:52;;;;;;;21.55;10.52;;;;;;;3.79;72.37;101646.03;4904018;29;20434;-78
2023/04/06 02:36:18;;;;;;;17.25;10.88;;;;;;;3.43;73.84;101654.34;4921015;29;20231;-79
2023/04/06 02:38:43;;;;;;;18.00;10.02;;;;;;;3.29;73.18;101640.53;4905636;29;20180;-79
2023/04/06 02:41:09;;;;;;;15.55;10.00;;;;;;;3.22;74.48;101642.91;4904295;29;20170;-79
2023/04/06 02:43:34;;;;;;;18.02;10.43;;;;;;;2.99;74.96;101644.75;4899659;29;20048;-78
2023/04/06 02:46:00;;;;;;;19.33;10.55;;;;;;;2.51;76.83;101632.16;4925231;29;20034;-79
2023/04/06 02:48:25;;;;;;;17.10;9.88;;;;;;;3.07;75.17;101634.94;4920160;29;20580;-79
2023/04/06 02:50:51;;;;;;;21.38;12.23;;;;;;;2.84;75.50;101632.06;4922268;29;20418;-79
2023/04/06 02:53:16;;;;;;;24.33;10.88;;;;;;;2.88;75.56;101635.84;4916995;29;20036;-79
2023/04/06 02:55:41;;;;;;;15.25;9.77;;;;;;;2.94;74.81;101637.38;4921506;29;20494;-78
2023/04/06 02:58:07;;;;;;;14.07;9.18;;;;;;;3.22;75.40;101629.88;4922517;29;20462;-78
2023/04/06 03:00:32;;;;;;;24.00;11.27;;;;;;;3.18;73.74;101630.81;4898903;29;20036;-79
2023/04/06 03:02:58;;;;;;;19.63;11.13;;;;;;;2.83;75.50;101619.38;4908148;29;20036;-79
2023/04/06 03:05:23;;;;;;;16.17;9.98;;;;;;;3.04;75.13;101626.13;4899512;29;20036;-79
2023/04/06 03:07:48;;;;;;;16.40;9.45;;;;;;;3.13;74.92;101628.16;4922616;29;20031;-78
2023/04/06 03:10:14;;;;;;;18.05;10.77;;;;;;;3.29;74.97;101626.72;4902672;29;20035;-79
2023/04/06 03:12:41;;;;;;;16.10;10.52;;;;;;;3.58;73.82;101622.72;4918439;29;20027;-78
2023/04/06 03:15:07;;;;;;;19.40;10.65;;;;;;;3.70;72.72;101617.47;4923322;29;20055;-79
2023/04/06 03:17:32;;;;;;;21.83;10.73;;;;;;;3.61;72.71;101619.34;4914902;29;20032;-79
2023/04/06 03:19:58;;;;;;;22.45;11.40;;;;;;;3.63;73.13;101622.63;4924993;29;20083;-79
2023/04/06 03:22:23;;;;;;;18.35;11.18;;;;;;;3.33;73.61;101611.13;4916988;29;20047;-78
2023/04/06 03:24:48;;;;;;;17.73;10.70;;;;;;;3.41;73.90;101613.13;4909480;29;20082;-79
2023/04/06 03:27:14;;;;;;;18.60;11.02;;;;;;;3.58;73.15;101617.19;4916025;29;20028;-79
2023/04/06 03:29:39;;;;;;;14.75;10.38;;;;;;;3.64;72.76;101611.22;4918362;29;20508;-78
2023/04/06 03:32:05;;;;;;;19.70;10.00;;;;;;;3.51;72.87;101611.28;4904267;29;20031;-78
2023/04/06 03:34:30;;;;;;;15.60;9.68;;;;;;;3.49;72.94;101603.28;4911510;29;20162;-78
2023/04/06 03:36:55;;;;;;;18.08;10.77;;;;;;;3.38;72.94;101611.00;4908670;29;20035;-79
2023/04/06 03:39:21;;;;;;;18.75;11.73;;;;;;;3.27;73.70;101612.38;4897383;29;20102;-80
2023/04/06 03:41:46;;;;;;;18.67;10.55;;;;;;;3.44;73.42;101607.00;4907987;29;20039;-80
2023/04/06 03:44:11;;;;;;;19.88;11.48;;;;;;;3.30;73.64;101606.19;4921955;29;20039;-79
2023/04/06 03:46:37;;;;;;;15.50;10.18;;;;;;;3.40;73.25;101605.97;4904809;29;20062;-80
2023/04/06 03:49:02;;;;;;;18.90;11.57;;;;;;;3.35;74.06;101606.09;4898846;29;20063;-80
2023/04/06 03:51:27;;;;;;;20.02;11.10;;;;;;;3.36;73.69;101604.97;4912409;29;20134;-80
2023/04/06 03:53:53;;;;;;;19.35;11.73;;;;;;;3.38;73.37;101608.22;4923825;29;20051;-80
2023/04/06 03:56:18;;;;;;;19.05;11.57;;;;;;;3.23;73.94;101606.63;4912755;29;20315;-80
2023/04/06 03:58:45;;;;;;;15.43;10.25;;;;;;;3.32;73.63;101601.16;4904081;29;20032;-80
2023/04/06 04:01:10;;;;;;;18.33;11.40;;;;;;;3.15;74.13;101609.31;4919921;29;21929;-79
2023/04/06 04:03:35;;;;;;;19.85;11.63;;;;;;;3.01;74.61;101603.78;4923995;29;20035;-80
2023/04/06 04:06:01;;;;;;;16.95;11.60;;;;;;;2.64;76.14;101600.13;4902464;29;20063;-79
2023/04/06 04:08:26;;;;;;;22.42;12.38;;;;;;;2.65;75.59;101598.97;4919715;29;20393;-79
2023/04/06 04:10:51;;;;;;;19.95;11.10;;;;;;;2.50;76.50;101591.81;4910148;29;20393;-80
2023/04/06 04:13:17;;;;;;;21.10;11.10;;;;;;;2.55;76.61;101605.53;4902307;29;20106;-79
2023/04/06 04:15:42;;;;;;;19.70;12.52;;;;;;;2.48;76.36;101602.34;4908215;29;20082;-79
2023/04/06 04:18:07;;;;;;;17.38;12.02;;;;;;;2.55;77.30;101593.66;4911304;29;20122;-79
2023/04/06 04:20:33;;;;;;;20.05;11.98;;;;;;;2.41;77.06;101585.34;4919791;29;20062;-79
2023/04/06 04:22:59;;;;;;;19.88;11.40;;;;;;;2.36;77.25;101589.03;4909079;29;20045;-79
2023/04/06 04:25:24;;;;;;;20.05;11.30;;;;;;;2.28;78.46;101599.94;4907919;29;20409;-80
2023/04/06 04:27:50;;;;;;;20.67;12.68;;;;;;;2.53;78.47;101595.91;4921618;29;20409;-79
2023/04/06 04:30:16;;;;;;;23.05;11.38;;;;;;;2.65;77.04;101590.69;4916415;29;20026;-80
2023/04/06 04:32:44;;;;;;;19.80;12.18;;;;;;;2.73;76.72;101587.22;4922267;29;20087;-79
2023/04/06 04:35:11;;;;;;;22.50;11.63;;;;;;;2.37;78.38;101589.84;4913762;29;20031;-79
2023/04/06 04:37:36;;;;;;;18.50;11.07;;;;;;;2.68;77.00;101594.78;4903470;29;20044;-80
2023/04/06 04:40:02;;;;;;;24.00;13.27;;;;;;;2.51;76.93;101584.31;4901503;29;20023;-80
2023/04/06 04:42:27;;;;;;;21.00;10.90;;;;;;;2.83;76.85;101592.53;4897944;29;20111;-80
2023/04/06 04:44:53;;;;;;;25.52;11.77;;;;;;;2.29;76.93;101571.22;4901520;29;20040;-79
2023/04/06 04:47:18;;;;;;;18.90;11.93;;;;;;;2.44;78.19;101584.72;4918905;29;20041;-79
2023/04/06 04:49:43;;;;;;;23.35;13.07;;;;;;;2.80;76.14;101586.78;4926344;29;20036;-79
2023/04/06 04:52:09;;;;;;;19.25;11.88;;;;;;;2.58;76.07;101574.50;4905041;29;20143;-80
2023/04/06 04:54:34;;;;;;;23.77;12.80;;;;;;;2.15;79.92;101576.72;4905816;29;20066;-80
2023/04/06 04:57:00;;;;;;;21.35;12.13;;;;;;;2.17;79.19;101575.31;4905835;29;20118;-79
2023/04/06 04:59:25;;;;;;;25.15;13.98;;;;;;;1.82;80.45;101558.22;4905548;29;20079;-79
2023/04/06 05:01:50;;;;;;;18.70;11.52;;;;;;;1.97;79.51;101575.66;4924262;29;20119;-79
2023/04/06 05:04:16;;;;;;;21.45;11.18;;;;;;;1.89;80.15;101585.44;4909989;29;20622;-80
2023/04/06 05:06:41;;;;;;;22.58;12.18;;;;;;;1.96;80.13;101574.84;4915097;29;20481;-80
2023/04/06 05:09:06;;;;;;;19.30;11.65;;;;;;;2.12;80.48;101580.91;4924510;29;20054;-79
2023/04/06 05:11:32;;;;;;;19.02;13.63;;;;;;;1.77;80.56;101582.31;4919469;29;20516;-79
2023/04/06 05:13:57;;;;;;;22.90;11.30;;;;;;;2.10;80.40;101580.38;4918725;29;20126;-80
2023/04/06 05:16:22;;;;;;;20.65;12.23;;;;;;;1.95;79.96;101575.13;4904190;29;20526;-79
2023/04/06 05:18:48;;;;;;;21.13;12.90;;;;;;;1.77;81.33;101574.88;4920641;29;20127;-80
2023/04/06 05:21:14;;;;;;;24.95;12.32;;;;;;;1.66;81.62;101570.63;4903447;29;20066;-80
2023/04/06 05:23:39;;;;;;;23.95;12.27;;;;;;;1.93;81.17;101574.63;4927857;29;20508;-79
2023/04/06 05:26:05;;;;;;;16.95;11.18;;;;;;;2.12;80.09;101569.03;4927823;29;20028;-80
2023/04/06 05:28:30;;;;;;;21.58;12.13;;;;;;;2.51;78.75;101578.78;4922378;29;20047;-80
2023/04/06 05:30:56;;;;;;;19.05;12.98;;;;;;;1.94;80.77;101570.72;4921446;29;20027;-79
2023/04/06 05:33:22;;;;;;;23.50;12.43;;;;;;;2.01;81.53;101571.16;4920664;29;20478;-79
2023/04/06 05:35:48;;;;;;;25.27;13.63;;;;;;;2.02;80.66;101575.56;4919611;29;21883;-79
2023/04/06 05:38:13;;;;;;;22.08;11.95;;;;;;;2.26;79.53;101574.56;4921266;29;20040;-79
2023/04/06 05:40:40;;;;;;;20.33;11.32;;;;;;;2.40;79.55;101575.41;4918761;29;20044;-79
2023/04/06 05:43:06;;;;;;;20.20;10.93;;;;;;;2.19;80.51;101561.16;4907205;29;20039;-79
2023/04/06 05:45:31;;;;;;;24.42;12.88;;;;;;;2.28;79.95;101558.50;4906020;29;20039;-79
2023/04/06 05:47:57;;;;;;;22.27;12.05;;;;;;;2.21;80.54;101564.44;4906578;29;20044;-79
2023/04/06 05:50:22;;;;;;;23.80;13.57;;;;;;;2.18;79.90;101576.91;4927579;29;20032;-79
2023/04/06 05:52:48;;;;;;;19.80;12.23;;;;;;;2.11;80.55;101565.47;4909591;29;20502;-79
2023/04/06 05:55:13;;;;;;;25.02;12.38;;;;;;;2.14;80.45;101558.50;4909830;29;20032;-79
2023/04/06 05:57:38;;;;;;;24.50;13.43;;;;;;;2.13;80.97;101563.22;4916268;29;20032;-79
2023/04/06 06:00:06;;;;;;;25.83;12.90;;;;;;;2.64;78.57;101555.91;4889439;29;20328;-78
2023/04/06 06:02:31;;;;;;;21.42;12.30;;;;;;;2.73;78.20;101559.56;4919473;29;20063;-78
2023/04/06 06:04:57;;;;;;;20.58;12.90;;;;;;;2.55;78.62;101558.56;4901655;29;20050;-78
2023/04/06 06:07:23;;;;;;;26.77;11.93;;;;;;;2.52;78.79;101536.25;4923750;29;20032;-79
2023/04/06 06:09:48;;;;;;;24.00;13.07;;;;;;;3.55;77.41;101556.94;4915075;29;20028;-79
2023/04/06 06:12:13;;;;;;;24.27;13.18;;;;;;;3.91;75.41;101561.59;4907820;29;20028;-80
2023/04/06 06:14:39;;;;;;;18.75;12.25;;;;;;;2.96;76.76;101552.16;4920990;29;20494;-81
2023/04/06 06:17:05;;;;;;;26.67;13.93;;;;;;;2.77;78.36;101560.59;4923491;29;20091;-81
2023/04/06 06:19:30;;;;;;;32.58;16.13;;;;;;;2.88;78.44;101554.84;4927178;29;20047;-82
2023/04/06 06:21:55;;;;;;;22.83;12.77;;;;;;;2.94;77.77;101554.41;4909365;29;20142;-81
2023/04/06 06:24:21;;;;;;;22.90;13.13;;;;;;;2.93;78.14;101555.56;4912225;29;20142;-81
2023/04/06 06:26:48;;;;;;;23.95;12.40;;;;;;;3.04;78.08;101554.22;4922593;29;20107;-81
2023/04/06 06:29:14;;;;;;;19.38;11.68;;;;;;;3.46;76.33;101554.91;4911772;29;20405;-82
2023/04/06 06:31:40;;;;;;;26.67;15.05;;;;;;;3.51;74.19;101556.72;4915967;29;20031;-82
2023/04/06 06:34:05;;;;;;;24.45;13.48;;;;;;;3.47;74.70;101559.31;4925201;29;20039;-82
2023/04/06 06:36:31;;;;;;;21.35;12.50;;;;;;;3.58;74.67;101557.09;4927340;29;20035;-81
2023/04/06 06:38:58;;;;;;;24.73;13.18;;;;;;;3.66;73.93;101552.78;4929211;29;20417;-82
2023/04/06 06:41:24;;;;;;;22.77;13.88;;;;;;;3.69;73.69;101552.16;4928987;29;20128;-81
2023/04/06 06:43:49;;;;;;;24.70;12.82;;;;;;;3.73;73.86;101544.88;4926160;29;20043;-81
2023/04/06 06:46:15;;;;;;;26.60;13.52;;;;;;;3.84;72.53;101549.00;4928950;29;20031;-81
2023/04/06 06:48:40;;;;;;;22.83;12.93;;;;;;;3.87;71.75;101548.34;4928532;29;20106;-81
2023/04/06 06:51:06;;;;;;;20.23;12.50;;;;;;;4.01;72.42;101550.25;4912940;29;20553;-81
2023/04/06 06:53:31;;;;;;;26.05;13.52;;;;;;;4.01;72.63;101539.16;4934933;29;20035;-81
2023/04/06 06:55:56;;;;;;;23.27;13.48;;;;;;;4.08;71.51;101545.06;4912292;29;20032;-81
2023/04/06 06:58:22;;;;;;;22.65;13.73;;;;;;;4.14;71.07;101541.03;4927961;29;20043;-81
2023/04/06 07:00:47;;;;;;;23.08;13.50;;;;;;;4.27;71.16;101545.66;4925558;29;20036;-81
2023/04/06 07:03:13;;;;;;;22.75;14.23;;;;;;;4.38;70.65;101545.38;4929846;29;20504;-81
2023/04/06 07:05:38;;;;;;;22.40;13.55;;;;;;;4.45;70.23;101538.25;4923788;29;20490;-81
2023/04/06 07:08:04;;;;;;;21.02;12.02;;;;;;;4.55;70.70;101534.34;4932303;29;20027;-81
2023/04/06 07:10:29;;;;;;;23.65;12.82;;;;;;;4.73;70.62;101526.09;4912863;29;20058;-81
2023/04/06 07:12:55;;;;;;;21.13;13.10;;;;;;;4.79;69.09;101527.59;4926814;29;20074;-82
2023/04/06 07:15:20;;;;;;;31.38;14.30;;;;;;;4.78;68.71;101526.75;4907477;29;20115;-81
2023/04/06 07:17:46;;;;;;;23.63;13.23;;;;;;;4.90;68.35;101528.91;4929542;29;20043;-82
2023/04/06 07:20:12;;;;;;;22.23;13.57;;;;;;;5.01;69.03;101530.22;4916005;29;20545;-82
2023/04/06 07:22:43;;;;;;;24.30;12.75;;;;;;;5.10;69.10;101524.69;4923272;29;20095;-82
2023/04/06 07:25:08;;;;;;;23.77;13.70;;;;;;;5.15;69.85;101524.53;4923518;29;20028;-82
2023/04/06 07:27:34;;;;;;;25.42;13.25;;;;;;;5.28;68.68;101533.84;4920547;29;20047;-82
2023/04/06 07:30:00;;;;;;;28.20;14.50;;;;;;;5.37;68.54;101517.19;4909233;29;20031;-82
2023/04/06 07:32:25;;;;;;;28.92;15.15;;;;;;;5.49;68.37;101526.50;4928471;29;20115;-82
2023/04/06 07:34:51;;;;;;;25.33;13.63;;;;;;;5.55;68.69;101527.16;4923776;29;20390;-82
2023/04/06 07:37:16;;;;;;;23.27;13.82;;;;;;;5.64;67.83;101516.03;4926543;29;20187;-82
2023/04/06 07:39:42;;;;;;;25.50;14.43;;;;;;;5.72;68.01;101525.50;4915072;29;20044;-82
2023/04/06 07:42:07;;;;;;;25.23;14.07;;;;;;;5.82;67.76;101520.41;4924888;29;20126;-81
2023/04/06 07:44:32;;;;;;;34.50;15.75;;;;;;;6.01;68.62;101517.31;4911205;29;20031;-81
2023/04/06 07:46:58;;;;;;;29.73;15.10;;;;;;;6.12;66.26;101516.94;4931338;29;20031;-82
2023/04/06 07:49:23;;;;;;;28.80;14.95;;;;;;;6.25;67.08;101505.59;4932722;29;20110;-82
2023/04/06 07:51:49;;;;;;;29.83;15.50;;;;;;;6.36;65.88;101506.03;4927638;29;20151;-81
2023/04/06 07:54:14;;;;;;;28.08;14.55;;;;;;;6.36;65.19;101499.66;4928753;29;20036;-82
2023/04/06 07:56:39;;;;;;;27.98;14.32;;;;;;;6.49;64.44;101509.75;4919271;29;20528;-81
2023/04/06 07:59:05;;;;;;;29.75;15.40;;;;;;;6.48;65.26;101497.00;4911777;29;20031;-81
2023/04/06 08:01:30;;;;;;;25.00;14.73;;;;;;;6.60;65.49;101502.66;4920520;29;20031;-81
2023/04/06 08:03:57;;;;;;;26.67;15.77;;;;;;;6.58;66.36;101501.34;4926842;29;20063;-82
2023/04/06 08:06:22;;;;;;;28.10;14.07;;;;;;;6.70;66.33;101509.78;4913997;29;20490;-82
2023/04/06 08:08:48;;;;;;;23.65;15.25;;;;;;;6.73;66.80;101503.56;4932309;29;20066;-82
2023/04/06 08:11:13;;;;;;;29.25;15.80;;;;;;;6.89;66.03;101501.00;4924870;29;20580;-82
2023/04/06 08:13:38;;;;;;;27.70;16.27;;;;;;;6.83;66.71;101505.13;4916931;29;20079;-81
2023/04/06 08:16:04;;;;;;;25.90;15.80;;;;;;;6.92;67.14;101505.91;4911538;29;20067;-82
2023/04/06 08:18:29;;;;;;;31.98;15.63;;;;;;;7.05;67.21;101507.59;4932059;29;20087;-82
2023/04/06 08:20:56;;;;;;;27.38;14.85;;;;;;;7.18;66.32;101504.91;4919765;29;20397;-82
2023/04/06 08:23:22;;;;;;;30.48;17.33;;;;;;;7.21;65.78;101507.00;4932825;29;20030;-81
2023/04/06 08:25:47;;;;;;;28.52;16.33;;;;;;;7.31;65.78;101498.25;4913424;29;20031;-82
2023/04/06 08:28:12;;;;;;;29.15;16.42;;;;;;;7.45;65.12;101501.56;4909628;29;20539;-82
2023/04/06 08:30:42;;;;;;;26.20;15.77;;;;;;;7.58;65.82;101494.06;4927053;29;20024;-83
2023/04/06 08:33:08;;;;;;;29.58;16.15;;;;;;;7.70;64.96;101501.66;4926922;29;20148;-82
2023/04/06 08:35:33;;;;;;;27.13;16.40;;;;;;;7.80;64.18;101508.75;4923421;29;20052;-82
2023/04/06 08:37:58;;;;;;;31.00;15.63;;;;;;;7.88;64.69;101503.09;4927403;29;20111;-82
2023/04/06 08:40:24;;;;;;;30.33;16.95;;;;;;;8.04;64.92;101494.09;4922773;29;20047;-82
2023/04/06 08:42:53;;;;;;;30.00;16.88;;;;;;;8.10;62.98;101504.66;4922305;29;21082;-82
2023/04/06 08:45:21;;;;;;;26.67;15.90;;;;;;;8.28;62.13;101493.28;4921609;29;20194;-83
2023/04/06 08:47:48;;;;;;;28.13;15.88;;;;;;;8.39;61.11;101499.22;4933485;29;20027;-83
2023/04/06 08:50:14;;;;;;;36.25;17.88;;;;;;;8.47;60.59;101489.97;4926652;29;20027;-82
2023/04/06 08:52:41;;;;;;;28.52;14.93;;;;;;;8.57;60.72;101495.09;4928053;29;20051;-82
2023/04/06 08:55:07;;;;;;;34.75;17.13;;;;;;;8.53;61.00;101488.56;4925913;29;20035;-82
2023/04/06 08:57:35;;;;;;;29.85;16.52;;;;;;;8.52;61.53;101498.13;4925004;29;20047;-82
2023/04/06 09:00:01;;;;;;;27.63;16.95;;;;;;;8.50;61.35;101489.28;4921768;29;20032;-82
2023/04/06 09:02:27;;;;;;;30.85;16.02;;;;;;;8.46;62.19;101483.59;4929201;29;20035;-83
2023/04/06 09:04:54;;;;;;;33.78;16.45;;;;;;;8.57;63.80;101483.94;4926345;29;20031;-83
2023/04/06 09:07:19;;;;;;;31.55;16.73;;;;;;;8.61;60.29;101487.66;4912016;29;20024;-83
2023/04/06 09:09:47;;;;;;;33.10;16.67;;;;;;;8.65;60.71;101485.78;4930295;29;20503;-83
2023/04/06 09:12:27;;;;;;;32.47;15.90;;;;;;;8.81;61.27;101485.06;4914403;29;20028;-81
2023/04/06 09:14:53;;;;;;;29.17;16.33;;;;;;;8.90;62.43;101475.41;4924073;29;20253;-82
2023/04/06 09:17:26;;;;;;;28.23;17.40;;;;;;;8.93;60.43;101471.09;4928835;29;20490;-82
2023/04/06 09:19:52;;;;;;;37.42;16.95;;;;;;;8.86;59.15;101487.63;4913073;29;20046;-82
2023/04/06 09:22:18;;;;;;;32.33;16.20;;;;;;;8.74;59.24;101482.88;4930196;29;20043;-82
2023/04/06 09:24:46;;;;;;;29.88;17.50;;;;;;;8.67;60.63;101483.47;4931212;29;20028;-82
2023/04/06 09:27:13;;;;;;;36.30;18.35;;;;;;;8.79;61.29;101471.47;4927370;29;21285;-82
2023/04/06 09:29:38;;;;;;;30.48;16.30;;;;;;;8.92;60.24;101475.06;4910328;29;20873;-82
2023/04/06 09:32:05;;;;;;;32.70;18.50;;;;;;;8.93;59.19;101474.69;4926972;29;20040;-83
2023/04/06 09:34:31;;;;;;;29.23;16.45;;;;;;;9.01;58.83;101470.13;4929309;29;20060;-81
2023/04/06 09:36:56;;;;;;;29.00;16.90;;;;;;;8.93;58.70;101473.88;4930629;29;20070;-82
2023/04/06 09:39:25;;;;;;;28.67;16.63;;;;;;;9.09;58.93;101477.56;4906359;29;20098;-83
2023/04/06 09:41:51;;;;;;;30.77;19.00;;;;;;;9.07;57.82;101468.72;4926952;29;20035;-82
2023/04/06 09:44:17;;;;;;;29.23;16.77;;;;;;;9.09;57.93;101460.81;4913599;29;20193;-82
2023/04/06 09:46:45;;;;;;;30.55;16.08;;;;;;;9.16;59.45;101455.44;4931372;29;20138;-82
2023/04/06 09:49:11;;;;;;;29.33;16.40;;;;;;;9.31;58.66;101461.44;4922894;29;20100;-81
2023/04/06 09:51:44;;;;;;;27.55;17.15;;;;;;;9.34;57.79;101460.75;4934102;29;20138;-82
2023/04/06 09:54:15;;;;;;;30.45;16.85;;;;;;;9.36;57.95;101459.22;4934744;29;20032;-82
2023/04/06 09:56:47;;;;;;;33.30;17.38;;;;;;;9.42;58.89;101459.75;4926953;29;20036;-82
2023/04/06 09:59:14;;;;;;;;;;;;;;;9.32;58.32;101466.69;4935597;29;20449;-80
2023/04/06 10:01:40;;;;;;;32.33;17.33;;;;;;;9.48;58.53;101461.13;4933359;29;20385;-83
2023/04/06 10:04:25;;;;;;;35.67;16.83;;;;;;;9.71;57.83;101460.56;4929796;29;20937;-82
2023/04/06 10:06:52;;;;;;;36.08;18.40;;;;;;;9.83;58.20;101454.91;4925874;29;20032;-82
2023/04/06 10:09:20;;;;;;;35.42;19.05;;;;;;;9.81;58.03;101457.22;4931947;29;20083;-82
2023/04/06 10:11:47;;;;;;;33.20;18.55;;;;;;;9.94;57.38;101449.59;4901546;29;20058;-82
2023/04/06 10:14:12;;;;;;;30.95;15.43;;;;;;;10.11;54.99;101452.00;4907571;29;20035;-82
2023/04/06 10:16:38;;;;;;;33.40;18.13;;;;;;;10.50;54.12;101452.22;4928706;29;20042;-83
2023/04/06 10:19:16;;;;;;;34.58;17.70;;;;;;;10.54;53.99;101452.28;4930468;29;20063;-82
2023/04/06 10:21:45;;;;;;;35.42;18.98;;;;;;;10.77;53.94;101442.03;4925599;29;20042;-83
2023/04/06 10:24:11;;;;;;;32.55;18.00;;;;;;;11.03;52.47;101448.19;4935707;29;20024;-83
2023/04/06 10:26:37;;;;;;;33.42;17.38;;;;;;;10.98;51.69;101447.31;4926803;29;20063;-83
2023/04/06 10:29:04;;;;;;;35.75;17.17;;;;;;;10.78;51.78;101440.84;4915715;29;20020;-83
2023/04/06 10:31:29;;;;;;;35.85;18.08;;;;;;;10.94;52.37;101445.59;4933022;29;20039;-84
2023/04/06 10:34:00;;;;;;;29.95;17.85;;;;;;;10.97;52.18;101442.06;4928513;29;20032;-82
2023/04/06 10:36:33;;;;;;;38.75;18.42;;;;;;;11.03;50.78;101448.19;4912170;29;20027;-83
2023/04/06 10:39:00;;;;;;;37.17;18.20;;;;;;;11.47;50.92;101445.91;4928136;29;20032;-83
2023/04/06 10:41:33;;;;;;;33.63;17.60;;;;;;;11.92;50.36;101444.38;4915033;29;20379;-85
2023/04/06 10:44:00;;;;;;;32.15;18.15;;;;;;;11.86;49.29;101443.03;4930733;29;20047;-86
2023/04/06 10:46:28;;;;;;;30.08;17.15;;;;;;;11.66;49.40;101433.03;4931634;29;20024;-85
2023/04/06 10:48:54;;;;;;;34.50;17.80;;;;;;;11.52;49.78;101425.97;4933353;29;20509;-86
2023/04/06 10:51:26;;;;;;;35.80;17.38;;;;;;;11.62;50.28;101432.97;4929715;29;20047;-85
2023/04/06 10:53:53;;;;;;;32.70;17.02;;;;;;;11.50;50.81;101431.13;4927633;29;20027;-85
2023/04/06 10:56:22;;;;;;;31.20;16.85;;;;;;;11.44;50.41;101438.22;4933959;29;20520;-86
2023/04/06 10:58:50;;;;;;;35.53;20.00;;;;;;;11.14;50.53;101438.81;4932111;29;20118;-85
2023/04/06 11:01:17;;;;;;;32.28;17.10;;;;;;;11.02;50.94;101435.34;4930953;29;20526;-85
2023/04/06 11:03:47;;;;;;;28.73;17.33;;;;;;;10.96;51.35;101438.47;4926420;29;20036;-85
2023/04/06 11:06:24;;;;;;;33.83;17.80;;;;;;;10.96;51.88;101443.22;4927560;29;20553;-84
2023/04/06 11:08:51;;;;;;;34.25;17.73;;;;;;;10.87;52.34;101440.66;4926768;29;20046;-85
2023/04/06 11:11:21;;;;;;;36.55;19.55;;;;;;;11.02;53.13;101441.75;4930992;29;20063;-85
2023/04/06 11:13:50;;;;;;;36.72;19.85;;;;;;;10.93;53.15;101441.19;4930922;29;20533;-85